Boston, Georgia
Current Conditions -  °F | °C
As of 12:15 AM on Wednesday 26 Nov 2014 (Local Time) from KTVI Reporting Station
Light Rain Light Rain  
Wind Chill: 41°   Ceiling: 800
Heat Index: 46°   Visibility: 7mi
Dew Point: 46°   Wind: 13mph
Humidity: 100%   Direction: 340°NNW
Pressure: 30.04"   Gusts: NA
Location:  30.79°N, 83.79°W
Report Text: KTVI 260515Z AUTO 34011KT 7SM -RA OVC008 08/08 A3004 RMK AO2
Loading
Personal Weather Stations






























Interactive Weather Map New forecast layout! Learn more

10-Day Weather Forecast

Advertisements
Track Severe Weather on mobile